createdAt,value
2022-09-28T00:00:10.836Z,1.77
2022-09-28T00:03:14.257Z,1.80
2022-09-28T00:06:19.563Z,1.50
2022-09-28T00:09:21.651Z,3.50
2022-09-28T00:12:24.249Z,1.75
2022-09-28T00:15:26.622Z,1.77
2022-09-28T00:18:32.270Z,0.68
2022-09-28T00:21:36.959Z,0.77
2022-09-28T00:24:39.401Z,0.95
2022-09-28T00:27:43.188Z,2.10
2022-09-28T00:30:45.515Z,1.77
2022-09-28T00:33:51.988Z,0.62
2022-09-28T00:36:54.363Z,1.17
2022-09-28T00:39:56.484Z,2.15
2022-09-28T00:42:58.851Z,4.60
2022-09-28T00:46:15.312Z,1.00
2022-09-28T00:49:19.898Z,1.48
2022-09-28T00:52:48.687Z,1.23
2022-09-28T00:55:58.869Z,1.85
2022-09-28T00:59:01.835Z,0.52
2022-09-28T01:02:04.508Z,1.62
2022-09-28T01:05:10.133Z,4.37
2022-09-28T01:08:14.270Z,0.43
2022-09-28T01:11:17.577Z,3.45
2022-09-28T01:14:20.701Z,4.80
2022-09-28T01:17:48.238Z,1.17
2022-09-28T01:21:01.147Z,1.23
2022-09-28T01:24:16.510Z,2.35
2022-09-28T01:27:31.951Z,1.50
2022-09-28T01:30:50.937Z,1.42
2022-09-28T01:37:04.481Z,1.80
2022-09-28T01:40:10.007Z,3.05
2022-09-28T01:43:19.897Z,0.50
2022-09-28T01:46:34.347Z,0.55
2022-09-28T01:49:43.602Z,0.82
2022-09-28T01:52:54.453Z,1.90
2022-09-28T01:56:01.775Z,1.35
2022-09-28T01:59:13.725Z,2.97
2022-09-28T02:02:22.590Z,1.23
2022-09-28T02:05:33.220Z,1.42
2022-09-28T02:08:40.876Z,1.48
2022-09-28T02:11:48.010Z,4.13
2022-09-28T02:14:56.595Z,1.48
2022-09-28T02:17:59.195Z,0.68
2022-09-28T02:21:28.198Z,0.95
2022-09-28T02:24:43.917Z,0.68
2022-09-28T02:27:59.281Z,0.40
2022-09-28T02:31:02.550Z,0.70
2022-09-28T02:34:05.430Z,1.65
2022-09-28T02:37:07.962Z,1.50
2022-09-28T02:40:20.345Z,0.30
2022-09-28T02:43:31.723Z,0.85
2022-09-28T02:47:21.858Z,2.37
2022-09-28T02:50:31.377Z,0.45
2022-09-28T02:53:52.875Z,1.73
2022-09-28T02:57:07.569Z,0.45
2022-09-28T03:00:19.887Z,1.33
2022-09-28T03:03:39.629Z,1.30
2022-09-28T03:06:53.223Z,4.65
2022-09-28T03:10:03.275Z,0.70
2022-09-28T03:13:06.165Z,4.15
2022-09-28T03:16:14.478Z,4.00
2022-09-28T03:19:21.366Z,0.65
2022-09-28T03:22:23.868Z,0.68
2022-09-28T03:25:26.186Z,1.27
2022-09-28T03:28:29.626Z,0.60
2022-09-28T03:31:32.800Z,0.40
2022-09-28T03:34:35.657Z,1.65
2022-09-28T03:37:38.152Z,1.05
2022-09-28T03:40:40.839Z,0.40
2022-09-28T03:43:43.306Z,2.20
2022-09-28T03:46:47.567Z,1.12
2022-09-28T03:49:49.671Z,1.25
2022-09-28T03:52:52.024Z,0.93
2022-09-28T03:55:54.281Z,1.95
2022-09-28T03:58:56.623Z,3.58
2022-09-28T04:01:58.809Z,1.48
2022-09-28T04:05:01.239Z,0.95
2022-09-28T04:08:04.057Z,1.15
2022-09-28T04:11:06.714Z,2.12
2022-09-28T04:14:09.041Z,2.60
2022-09-28T04:17:11.458Z,2.45
2022-09-28T04:20:14.485Z,1.17
2022-09-28T04:23:20.303Z,1.30
2022-09-28T04:26:24.858Z,3.83
2022-09-28T04:29:28.024Z,2.10
2022-09-28T04:32:30.280Z,4.47
2022-09-28T04:35:32.699Z,3.97
2022-09-28T04:38:52.397Z,1.10
2022-09-28T04:41:59.816Z,2.05
2022-09-28T04:45:04.706Z,1.37
2022-09-28T04:48:08.107Z,2.62
2022-09-28T04:51:12.675Z,1.20
2022-09-28T04:54:15.127Z,4.22
2022-09-28T04:57:17.414Z,3.75
2022-09-28T05:00:20.088Z,1.33
2022-09-28T05:03:25.779Z,3.75
2022-09-28T05:06:31.044Z,2.05
2022-09-28T05:09:38.400Z,7.78
2022-09-28T05:12:42.175Z,3.10
2022-09-28T05:15:48.896Z,2.22
2022-09-28T05:18:58.022Z,2.25
2022-09-28T05:22:06.403Z,2.80
2022-09-28T05:25:11.151Z,4.82
2022-09-28T05:28:24.750Z,5.28
2022-09-28T05:31:28.092Z,0.93
2022-09-28T05:34:31.556Z,1.42
2022-09-28T05:37:34.427Z,6.47
2022-09-28T05:40:36.653Z,1.62
2022-09-28T05:43:39.595Z,3.30
2022-09-28T05:46:41.787Z,3.20
2022-09-28T05:49:44.665Z,3.55
2022-09-28T05:52:47.052Z,2.37
2022-09-28T05:55:49.836Z,4.82
2022-09-28T05:58:51.982Z,12.37
2022-09-28T06:01:54.831Z,6.25
2022-09-28T06:04:57.311Z,2.60
2022-09-28T06:07:59.553Z,1.75
2022-09-28T06:11:02.199Z,1.80
2022-09-28T06:14:05.062Z,3.92
2022-09-28T06:17:07.964Z,6.05
2022-09-28T06:20:11.826Z,3.25
2022-09-28T06:23:21.187Z,4.43
2022-09-28T06:26:23.347Z,12.77
2022-09-28T06:29:25.735Z,6.25
2022-09-28T06:32:29.332Z,6.18
2022-09-28T06:35:33.330Z,2.12
2022-09-28T06:38:35.844Z,1.73
2022-09-28T06:41:39.913Z,2.10
2022-09-28T06:44:47.041Z,1.70
2022-09-28T06:48:00.313Z,2.47
2022-09-28T06:51:03.446Z,1.55
2022-09-28T06:54:06.194Z,1.67
2022-09-28T06:57:09.277Z,0.70
2022-09-28T07:00:12.455Z,2.72
2022-09-28T07:03:19.927Z,3.15
2022-09-28T07:06:24.191Z,3.92
2022-09-28T07:09:32.982Z,5.85
2022-09-28T07:12:39.887Z,5.05
2022-09-28T07:15:43.293Z,1.37
2022-09-28T07:18:47.873Z,5.57
2022-09-28T07:22:03.084Z,2.12
2022-09-28T07:25:09.295Z,9.30
2022-09-28T07:28:12.721Z,1.20
2022-09-28T07:31:15.721Z,0.85
2022-09-28T07:34:18.592Z,1.65
2022-09-28T07:37:24.247Z,2.65
2022-09-28T07:40:48.402Z,3.55
2022-09-28T07:43:51.448Z,1.52
2022-09-28T07:46:54.739Z,3.53
2022-09-28T07:49:59.576Z,1.90
2022-09-28T07:53:03.942Z,4.97
2022-09-28T07:56:09.567Z,2.00
2022-09-28T07:59:12.725Z,1.10
2022-09-28T08:02:20.574Z,3.10
2022-09-28T08:05:23.111Z,3.55
2022-09-28T08:08:25.214Z,4.75
2022-09-28T08:11:27.997Z,3.78
2022-09-28T08:14:34.427Z,2.65
2022-09-28T08:17:37.714Z,2.00
2022-09-28T08:20:58.816Z,3.85
2022-09-28T08:24:01.580Z,1.73
2022-09-28T08:27:03.844Z,6.78
2022-09-28T08:30:09.844Z,4.15
2022-09-28T08:33:17.905Z,1.20
2022-09-28T08:36:29.626Z,1.80
2022-09-28T08:39:34.729Z,3.95
2022-09-28T08:42:44.459Z,1.48
2022-09-28T08:45:47.813Z,1.98
2022-09-28T08:49:23.921Z,1.87
2022-09-28T08:52:30.048Z,1.45
2022-09-28T08:55:37.241Z,1.90
2022-09-28T08:58:46.456Z,1.20
2022-09-28T09:04:58.034Z,4.10
2022-09-28T09:08:12.989Z,3.90
2022-09-28T09:11:27.340Z,4.78
2022-09-28T09:14:48.019Z,1.27
2022-09-28T09:18:30.313Z,2.12
2022-09-28T09:21:46.223Z,1.67
2022-09-28T09:24:50.798Z,2.25
2022-09-28T09:28:09.659Z,2.75
2022-09-28T09:31:26.494Z,2.47
2022-09-28T09:34:51.780Z,1.62
2022-09-28T09:38:33.995Z,8.50
2022-09-28T09:41:58.137Z,3.08
2022-09-28T09:45:23.520Z,2.05
2022-09-28T09:48:33.897Z,1.75
2022-09-28T09:51:46.985Z,2.78
2022-09-28T09:55:02.183Z,3.97
2022-09-28T09:58:11.784Z,2.67
2022-09-28T10:01:19.419Z,1.15
2022-09-28T10:04:39.407Z,2.95
2022-09-28T10:08:01.298Z,1.83
2022-09-28T10:14:24.220Z,1.80
2022-09-28T10:17:30.031Z,1.37
2022-09-28T10:20:39.618Z,0.90
2022-09-28T10:23:44.610Z,8.45
2022-09-28T10:26:51.811Z,1.58
2022-09-28T10:29:59.994Z,4.55
2022-09-28T10:33:02.498Z,2.05
2022-09-28T10:36:08.115Z,1.58
2022-09-28T10:39:33.642Z,4.53
2022-09-28T10:42:36.462Z,1.98
2022-09-28T10:45:39.261Z,2.20
2022-09-28T10:49:02.487Z,2.37
2022-09-28T10:52:28.963Z,2.10
2022-09-28T10:55:33.424Z,2.20
2022-09-28T10:58:41.842Z,6.18
2022-09-28T11:01:45.673Z,1.10
2022-09-28T11:04:53.063Z,1.25
2022-09-28T11:07:59.771Z,1.27
2022-09-28T11:11:03.928Z,4.80
2022-09-28T11:14:39.591Z,1.73
2022-09-28T11:17:44.553Z,3.45
2022-09-28T11:20:48.764Z,2.72
2022-09-28T11:24:19.910Z,2.12
2022-09-28T11:27:25.788Z,5.30
2022-09-28T11:30:44.584Z,4.75
2022-09-28T11:33:48.333Z,5.25
2022-09-28T11:37:15.633Z,2.47
2022-09-28T11:40:38.893Z,2.17
2022-09-28T11:43:41.726Z,2.45
2022-09-28T11:47:08.627Z,4.35
2022-09-28T11:50:24.470Z,2.67
2022-09-28T11:53:35.063Z,2.80
2022-09-28T11:56:42.129Z,7.37
2022-09-28T11:59:51.961Z,2.57
2022-09-28T12:03:07.243Z,1.40
2022-09-28T12:09:48.385Z,2.08
2022-09-28T12:12:58.265Z,2.30
2022-09-28T12:19:49.868Z,2.00
2022-09-28T12:23:08.234Z,1.15
2022-09-28T12:26:35.931Z,1.87
2022-09-28T12:29:47.414Z,1.80
2022-09-28T12:32:56.046Z,2.33
2022-09-28T12:36:14.725Z,1.45
2022-09-28T12:39:56.543Z,1.52
2022-09-28T12:43:28.854Z,1.35
2022-09-28T12:46:37.110Z,6.43
2022-09-28T12:53:41.549Z,1.15
2022-09-28T12:57:13.081Z,3.33
2022-09-28T13:00:32.176Z,9.27
2022-09-28T13:03:49.600Z,2.08
2022-09-28T13:07:06.396Z,3.95
2022-09-28T13:10:34.883Z,0.83
2022-09-28T13:13:49.307Z,1.10
2022-09-28T13:17:15.564Z,1.77
2022-09-28T13:20:32.111Z,0.50
2022-09-28T13:23:46.587Z,2.92
2022-09-28T13:26:49.710Z,1.10
2022-09-28T13:29:52.330Z,9.75
2022-09-28T13:33:00.995Z,1.33
2022-09-28T13:36:24.433Z,2.00
2022-09-28T13:39:46.456Z,0.98
2022-09-28T13:42:56.919Z,1.48
2022-09-28T13:46:07.618Z,0.88
2022-09-28T13:49:21.766Z,1.60
2022-09-28T13:52:43.444Z,0.90
2022-09-28T13:56:04.412Z,1.27
2022-09-28T13:59:23.161Z,0.88
2022-09-28T14:02:33.797Z,0.50
2022-09-28T14:05:55.044Z,0.70
2022-09-28T14:09:35.987Z,1.40
2022-09-28T14:12:38.296Z,1.08
2022-09-28T14:15:43.919Z,3.65
2022-09-28T14:19:10.053Z,0.52
2022-09-28T14:22:24.117Z,2.87
2022-09-28T14:25:42.982Z,0.68
2022-09-28T14:29:09.962Z,0.70
2022-09-28T14:32:12.547Z,2.58
2022-09-28T14:35:26.062Z,0.80
2022-09-28T14:38:54.411Z,0.60
2022-09-28T14:41:56.542Z,2.78
2022-09-28T14:45:06.113Z,3.70
2022-09-28T14:48:20.384Z,1.77
2022-09-28T14:51:26.395Z,1.08
2022-09-28T14:54:38.405Z,1.75
2022-09-28T14:57:42.084Z,2.53
2022-09-28T15:00:46.549Z,1.70
2022-09-28T15:03:54.098Z,4.68
2022-09-28T15:06:57.509Z,2.35
2022-09-28T15:10:04.221Z,7.15
2022-09-28T15:13:16.145Z,0.80
2022-09-28T15:16:24.059Z,0.88
2022-09-28T15:19:53.021Z,2.30
2022-09-28T15:22:58.334Z,1.85
2022-09-28T15:26:01.363Z,1.87
2022-09-28T15:29:18.010Z,2.62
2022-09-28T15:32:27.614Z,1.95
2022-09-28T15:35:30.051Z,1.48
2022-09-28T15:38:33.994Z,2.42
2022-09-28T15:41:36.559Z,7.50
2022-09-28T15:44:41.586Z,8.05
2022-09-28T15:47:44.835Z,5.40
2022-09-28T15:51:01.331Z,4.00
2022-09-28T15:54:21.532Z,1.83
2022-09-28T15:57:37.000Z,1.62
2022-09-28T16:00:40.215Z,2.85
2022-09-28T16:03:42.683Z,5.03
2022-09-28T16:06:45.255Z,6.55
2022-09-28T16:10:25.452Z,5.37
2022-09-28T16:13:27.809Z,3.17
2022-09-28T16:16:37.044Z,4.45
2022-09-28T16:19:39.586Z,5.90
2022-09-28T16:22:43.309Z,2.67
2022-09-28T16:26:04.331Z,2.47
2022-09-28T16:29:25.504Z,2.40
2022-09-28T16:32:33.986Z,3.03
2022-09-28T16:35:42.494Z,3.17
2022-09-28T16:38:45.480Z,3.28
2022-09-28T16:41:58.192Z,3.15
2022-09-28T16:45:04.203Z,2.55
2022-09-28T16:48:06.655Z,2.60
2022-09-28T16:51:08.710Z,4.55
2022-09-28T16:54:41.202Z,6.75
2022-09-28T16:57:45.416Z,3.45
2022-09-28T17:00:47.847Z,4.43
2022-09-28T17:03:50.191Z,3.70
2022-09-28T17:06:54.331Z,4.93
2022-09-28T17:09:56.404Z,16.48
2022-09-28T17:12:59.516Z,9.55
2022-09-28T17:16:04.395Z,3.53
2022-09-28T17:19:26.827Z,5.12
2022-09-28T17:22:29.505Z,6.82
2022-09-28T17:25:32.216Z,5.65
2022-09-28T17:28:37.173Z,5.47
2022-09-28T17:31:39.777Z,11.60
2022-09-28T17:34:48.334Z,4.85
2022-09-28T17:37:58.133Z,9.57
2022-09-28T17:41:00.275Z,4.75
2022-09-28T17:44:03.216Z,6.53
2022-09-28T17:47:05.326Z,4.70
2022-09-28T17:50:29.658Z,5.15
2022-09-28T17:53:31.716Z,4.00
2022-09-28T17:56:35.301Z,7.18
2022-09-28T17:59:37.375Z,13.13
2022-09-28T18:02:40.723Z,4.82
2022-09-28T18:05:43.940Z,6.05
2022-09-28T18:08:46.743Z,4.45
2022-09-28T18:11:52.773Z,4.78
2022-09-28T18:14:54.969Z,5.47
2022-09-28T18:17:57.414Z,9.70
2022-09-28T18:21:02.315Z,4.78
2022-09-28T18:24:04.886Z,5.95
2022-09-28T18:27:07.021Z,8.57
2022-09-28T18:30:09.855Z,6.37
2022-09-28T18:33:13.955Z,6.82
2022-09-28T18:36:16.358Z,6.40
2022-09-28T18:39:18.612Z,4.82
2022-09-28T18:42:21.114Z,4.20
2022-09-28T18:45:23.227Z,6.53
2022-09-28T18:48:27.926Z,8.27
2022-09-28T18:51:30.279Z,5.22
2022-09-28T18:54:33.283Z,11.63
2022-09-28T18:57:36.335Z,8.25
2022-09-28T19:00:40.459Z,8.27
2022-09-28T19:03:42.763Z,5.35
2022-09-28T19:06:47.482Z,6.28
2022-09-28T19:09:50.408Z,7.95
2022-09-28T19:12:52.831Z,7.07
2022-09-28T19:15:55.330Z,4.68
2022-09-28T19:18:59.091Z,8.32
2022-09-28T19:22:01.687Z,4.78
2022-09-28T19:25:04.524Z,7.32
2022-09-28T19:28:06.663Z,5.32
2022-09-28T19:31:10.845Z,7.28
2022-09-28T19:34:14.231Z,6.55
2022-09-28T19:37:16.938Z,6.82
2022-09-28T19:40:19.515Z,6.75
2022-09-28T19:43:22.131Z,8.00
2022-09-28T19:46:24.244Z,7.68
2022-09-28T19:49:27.892Z,6.95
2022-09-28T19:52:29.976Z,12.52
2022-09-28T19:55:36.231Z,10.70
2022-09-28T19:58:39.039Z,8.10
2022-09-28T20:01:42.291Z,9.68
2022-09-28T20:04:44.779Z,9.60
2022-09-28T20:07:46.864Z,10.15
2022-09-28T20:10:52.299Z,6.90
2022-09-28T20:13:55.273Z,8.40
2022-09-28T20:16:57.853Z,7.93
2022-09-28T20:19:59.988Z,6.85
2022-09-28T20:23:03.041Z,10.15
2022-09-28T20:26:07.034Z,8.82
2022-09-28T20:29:09.660Z,8.80
2022-09-28T20:32:12.164Z,7.47
2022-09-28T20:35:22.320Z,13.27
2022-09-28T20:38:32.378Z,8.90
2022-09-28T20:41:36.573Z,11.50
2022-09-28T20:44:41.638Z,9.38
2022-09-28T20:47:44.081Z,10.23
2022-09-28T20:50:46.174Z,9.00
2022-09-28T20:53:54.437Z,9.57
2022-09-28T20:56:56.550Z,9.15
2022-09-28T20:59:58.904Z,12.88
2022-09-28T21:03:01.102Z,9.90
2022-09-28T21:06:08.727Z,9.20
2022-09-28T21:09:13.610Z,9.05
2022-09-28T21:12:16.405Z,10.55
2022-09-28T21:15:18.520Z,7.65
2022-09-28T21:18:22.346Z,9.75
2022-09-28T21:21:25.657Z,5.80
2022-09-28T21:24:28.020Z,5.93
2022-09-28T21:27:30.940Z,7.75
2022-09-28T21:30:33.604Z,4.55
2022-09-28T21:33:35.780Z,7.57
2022-09-28T21:36:38.521Z,5.32
2022-09-28T21:39:40.658Z,7.82
2022-09-28T21:42:43.101Z,5.37
2022-09-28T21:45:49.641Z,7.07
2022-09-28T21:48:55.028Z,5.15
2022-09-28T21:51:57.171Z,5.97
2022-09-28T21:54:59.583Z,6.97
2022-09-28T21:58:01.680Z,6.60
2022-09-28T22:01:07.082Z,4.90
2022-09-28T22:04:10.214Z,7.43
2022-09-28T22:07:12.338Z,6.00
2022-09-28T22:10:15.315Z,5.60
2022-09-28T22:13:17.387Z,6.45
2022-09-28T22:16:23.063Z,5.15
2022-09-28T22:19:25.203Z,4.37
2022-09-28T22:22:29.256Z,7.28
2022-09-28T22:25:31.486Z,6.97
2022-09-28T22:28:34.873Z,5.07
2022-09-28T22:31:40.090Z,5.53
2022-09-28T22:34:42.571Z,4.10
2022-09-28T22:37:44.683Z,4.57
2022-09-28T22:40:51.811Z,6.37
2022-09-28T22:43:54.996Z,6.50
2022-09-28T22:46:57.435Z,9.98
2022-09-28T22:49:59.923Z,6.18
2022-09-28T22:53:02.314Z,5.18
2022-09-28T22:56:05.846Z,5.72
2022-09-28T22:59:08.250Z,7.93
2022-09-28T23:02:10.371Z,5.40
2022-09-28T23:05:13.507Z,5.40
2022-09-28T23:08:15.569Z,4.25
2022-09-28T23:11:18.812Z,6.57
2022-09-28T23:14:22.593Z,7.12
2022-09-28T23:17:25.031Z,7.45
2022-09-28T23:20:27.139Z,5.57
2022-09-28T23:23:29.787Z,5.97
2022-09-28T23:26:34.147Z,5.37
2022-09-28T23:29:36.500Z,6.20
2022-09-28T23:32:38.605Z,5.10
2022-09-28T23:35:41.838Z,7.72
2022-09-28T23:38:44.144Z,6.82
2022-09-28T23:41:46.528Z,5.05
2022-09-28T23:44:48.601Z,8.18
2022-09-28T23:47:51.511Z,4.68
2022-09-28T23:50:53.664Z,4.87
2022-09-28T23:53:56.100Z,7.75
2022-09-28T23:56:58.223Z,5.55
